sensor_id;sensor_type;location;lat;lon;timestamp;P1;durP1;ratioP1;P2;durP2;ratioP2
71869;SDS011;59739;47.696;11.746;2022-12-07T00:01:32;7.38;;;5.70;;
71869;SDS011;59739;47.696;11.746;2022-12-07T00:04:02;8.32;;;5.75;;
71869;SDS011;59739;47.696;11.746;2022-12-07T00:09:07;9.07;;;6.32;;
71869;SDS011;59739;47.696;11.746;2022-12-07T00:11:36;7.97;;;5.53;;
71869;SDS011;59739;47.696;11.746;2022-12-07T00:14:03;9.25;;;5.88;;
71869;SDS011;59739;47.696;11.746;2022-12-07T00:16:32;7.88;;;5.70;;
71869;SDS011;59739;47.696;11.746;2022-12-07T00:19:00;7.22;;;5.55;;
71869;SDS011;59739;47.696;11.746;2022-12-07T00:21:27;9.32;;;5.85;;
71869;SDS011;59739;47.696;11.746;2022-12-07T00:24:04;8.63;;;5.93;;
71869;SDS011;59739;47.696;11.746;2022-12-07T00:26:35;7.43;;;5.32;;
71869;SDS011;59739;47.696;11.746;2022-12-07T00:29:11;7.80;;;5.32;;
71869;SDS011;59739;47.696;11.746;2022-12-07T00:31:42;6.97;;;5.30;;
71869;SDS011;59739;47.696;11.746;2022-12-07T00:34:11;6.25;;;4.75;;
71869;SDS011;59739;47.696;11.746;2022-12-07T00:36:44;6.47;;;4.93;;
71869;SDS011;59739;47.696;11.746;2022-12-07T00:39:10;6.65;;;4.78;;
71869;SDS011;59739;47.696;11.746;2022-12-07T00:41:36;7.25;;;5.40;;
71869;SDS011;59739;47.696;11.746;2022-12-07T00:44:02;6.20;;;4.60;;
71869;SDS011;59739;47.696;11.746;2022-12-07T00:46:28;7.22;;;5.18;;
71869;SDS011;59739;47.696;11.746;2022-12-07T00:48:55;8.13;;;5.43;;
71869;SDS011;59739;47.696;11.746;2022-12-07T00:51:22;6.85;;;5.07;;
71869;SDS011;59739;47.696;11.746;2022-12-07T00:53:50;6.50;;;5.13;;
71869;SDS011;59739;47.696;11.746;2022-12-07T00:56:18;7.43;;;4.95;;
71869;SDS011;59739;47.696;11.746;2022-12-07T00:58:51;6.97;;;5.03;;
71869;SDS011;59739;47.696;11.746;2022-12-07T01:01:21;7.80;;;5.60;;
71869;SDS011;59739;47.696;11.746;2022-12-07T01:03:49;8.18;;;5.80;;
71869;SDS011;59739;47.696;11.746;2022-12-07T01:06:16;8.00;;;5.57;;
71869;SDS011;59739;47.696;11.746;2022-12-07T01:08:43;7.00;;;5.72;;
71869;SDS011;59739;47.696;11.746;2022-12-07T01:11:12;8.50;;;6.10;;
71869;SDS011;59739;47.696;11.746;2022-12-07T01:13:41;7.85;;;5.88;;
71869;SDS011;59739;47.696;11.746;2022-12-07T01:16:08;7.70;;;5.88;;
71869;SDS011;59739;47.696;11.746;2022-12-07T01:18:38;9.07;;;6.22;;
71869;SDS011;59739;47.696;11.746;2022-12-07T01:21:12;8.85;;;6.10;;
71869;SDS011;59739;47.696;11.746;2022-12-07T01:23:49;8.07;;;6.15;;
71869;SDS011;59739;47.696;11.746;2022-12-07T01:26:17;9.73;;;5.90;;
71869;SDS011;59739;47.696;11.746;2022-12-07T01:28:46;9.95;;;6.40;;
71869;SDS011;59739;47.696;11.746;2022-12-07T01:31:13;9.40;;;5.85;;
71869;SDS011;59739;47.696;11.746;2022-12-07T01:33:44;8.35;;;5.28;;
71869;SDS011;59739;47.696;11.746;2022-12-07T01:36:14;6.53;;;5.25;;
71869;SDS011;59739;47.696;11.746;2022-12-07T01:38:44;7.43;;;5.78;;
71869;SDS011;59739;47.696;11.746;2022-12-07T01:41:11;8.38;;;5.80;;
71869;SDS011;59739;47.696;11.746;2022-12-07T01:44:07;7.97;;;5.47;;
71869;SDS011;59739;47.696;11.746;2022-12-07T01:47:21;7.68;;;5.53;;
71869;SDS011;59739;47.696;11.746;2022-12-07T01:49:41;6.88;;;5.50;;
71869;SDS011;59739;47.696;11.746;2022-12-07T01:52:20;8.65;;;5.72;;
71869;SDS011;59739;47.696;11.746;2022-12-07T01:54:57;7.97;;;5.37;;
71869;SDS011;59739;47.696;11.746;2022-12-07T01:57:28;9.52;;;5.85;;
71869;SDS011;59739;47.696;11.746;2022-12-07T01:59:55;8.45;;;6.05;;
71869;SDS011;59739;47.696;11.746;2022-12-07T02:02:24;9.05;;;6.45;;
71869;SDS011;59739;47.696;11.746;2022-12-07T02:04:59;11.13;;;5.68;;
71869;SDS011;59739;47.696;11.746;2022-12-07T02:07:27;9.35;;;6.75;;
71869;SDS011;59739;47.696;11.746;2022-12-07T02:09:54;9.90;;;6.38;;
71869;SDS011;59739;47.696;11.746;2022-12-07T02:12:20;9.30;;;6.55;;
71869;SDS011;59739;47.696;11.746;2022-12-07T02:14:48;10.25;;;6.32;;
71869;SDS011;59739;47.696;11.746;2022-12-07T02:17:21;7.50;;;5.95;;
71869;SDS011;59739;47.696;11.746;2022-12-07T02:20:27;8.00;;;6.20;;
71869;SDS011;59739;47.696;11.746;2022-12-07T02:29:31;11.88;;;7.10;;
71869;SDS011;59739;47.696;11.746;2022-12-07T02:31:45;8.70;;;6.50;;
71869;SDS011;59739;47.696;11.746;2022-12-07T02:34:37;8.82;;;7.00;;
71869;SDS011;59739;47.696;11.746;2022-12-07T02:37:10;11.18;;;7.13;;
71869;SDS011;59739;47.696;11.746;2022-12-07T02:39:48;10.50;;;7.13;;
71869;SDS011;59739;47.696;11.746;2022-12-07T02:42:30;12.02;;;7.60;;
71869;SDS011;59739;47.696;11.746;2022-12-07T02:45:02;9.18;;;6.03;;
71869;SDS011;59739;47.696;11.746;2022-12-07T02:47:30;10.07;;;6.55;;
71869;SDS011;59739;47.696;11.746;2022-12-07T02:49:58;10.65;;;7.15;;
71869;SDS011;59739;47.696;11.746;2022-12-07T02:52:24;9.55;;;7.10;;
71869;SDS011;59739;47.696;11.746;2022-12-07T02:54:50;10.35;;;6.82;;
71869;SDS011;59739;47.696;11.746;2022-12-07T03:00:19;9.13;;;6.63;;
71869;SDS011;59739;47.696;11.746;2022-12-07T03:11:12;9.65;;;6.85;;
71869;SDS011;59739;47.696;11.746;2022-12-07T03:16:52;12.50;;;7.85;;
71869;SDS011;59739;47.696;11.746;2022-12-07T03:19:30;13.40;;;7.68;;
71869;SDS011;59739;47.696;11.746;2022-12-07T03:22:06;11.43;;;7.80;;
71869;SDS011;59739;47.696;11.746;2022-12-07T03:24:47;12.23;;;7.35;;
71869;SDS011;59739;47.696;11.746;2022-12-07T03:27:21;12.95;;;6.85;;
71869;SDS011;59739;47.696;11.746;2022-12-07T03:30:04;11.10;;;6.95;;
71869;SDS011;59739;47.696;11.746;2022-12-07T03:38:10;14.27;;;7.70;;
71869;SDS011;59739;47.696;11.746;2022-12-07T03:40:48;12.57;;;8.30;;
71869;SDS011;59739;47.696;11.746;2022-12-07T03:43:21;15.95;;;9.38;;
71869;SDS011;59739;47.696;11.746;2022-12-07T03:46:34;14.07;;;9.10;;
71869;SDS011;59739;47.696;11.746;2022-12-07T03:57:44;15.35;;;8.70;;
71869;SDS011;59739;47.696;11.746;2022-12-07T04:00:13;14.88;;;9.05;;
71869;SDS011;59739;47.696;11.746;2022-12-07T04:02:39;17.92;;;9.02;;
71869;SDS011;59739;47.696;11.746;2022-12-07T04:05:07;14.20;;;8.43;;
71869;SDS011;59739;47.696;11.746;2022-12-07T04:07:34;16.52;;;9.30;;
71869;SDS011;59739;47.696;11.746;2022-12-07T04:10:00;14.85;;;8.73;;
71869;SDS011;59739;47.696;11.746;2022-12-07T04:12:26;17.48;;;9.88;;
71869;SDS011;59739;47.696;11.746;2022-12-07T04:14:52;19.33;;;10.48;;
71869;SDS011;59739;47.696;11.746;2022-12-07T04:17:18;18.98;;;10.40;;
71869;SDS011;59739;47.696;11.746;2022-12-07T04:19:44;19.48;;;11.90;;
71869;SDS011;59739;47.696;11.746;2022-12-07T04:22:10;18.35;;;11.38;;
71869;SDS011;59739;47.696;11.746;2022-12-07T04:24:36;20.70;;;12.30;;
71869;SDS011;59739;47.696;11.746;2022-12-07T04:27:02;16.30;;;8.73;;
71869;SDS011;59739;47.696;11.746;2022-12-07T04:29:28;17.90;;;10.77;;
71869;SDS011;59739;47.696;11.746;2022-12-07T04:31:54;17.83;;;10.07;;
71869;SDS011;59739;47.696;11.746;2022-12-07T04:34:20;16.15;;;9.95;;
71869;SDS011;59739;47.696;11.746;2022-12-07T04:36:46;18.50;;;9.88;;
71869;SDS011;59739;47.696;11.746;2022-12-07T04:39:23;20.77;;;10.88;;
71869;SDS011;59739;47.696;11.746;2022-12-07T04:41:54;20.65;;;11.07;;
71869;SDS011;59739;47.696;11.746;2022-12-07T04:44:21;21.08;;;12.70;;
71869;SDS011;59739;47.696;11.746;2022-12-07T04:46:48;19.52;;;11.05;;
71869;SDS011;59739;47.696;11.746;2022-12-07T04:49:14;18.40;;;9.82;;
71869;SDS011;59739;47.696;11.746;2022-12-07T04:51:41;20.35;;;11.25;;
71869;SDS011;59739;47.696;11.746;2022-12-07T04:54:08;22.13;;;13.23;;
71869;SDS011;59739;47.696;11.746;2022-12-07T04:56:35;21.55;;;11.77;;
71869;SDS011;59739;47.696;11.746;2022-12-07T04:59:01;22.15;;;11.93;;
71869;SDS011;59739;47.696;11.746;2022-12-07T05:01:28;22.98;;;11.05;;
71869;SDS011;59739;47.696;11.746;2022-12-07T05:03:54;19.23;;;11.95;;
71869;SDS011;59739;47.696;11.746;2022-12-07T05:06:20;17.40;;;10.57;;
71869;SDS011;59739;47.696;11.746;2022-12-07T05:08:46;21.00;;;10.80;;
71869;SDS011;59739;47.696;11.746;2022-12-07T05:11:12;18.23;;;10.80;;
71869;SDS011;59739;47.696;11.746;2022-12-07T05:13:59;17.25;;;10.23;;
71869;SDS011;59739;47.696;11.746;2022-12-07T05:16:29;16.75;;;10.10;;
71869;SDS011;59739;47.696;11.746;2022-12-07T05:18:55;15.82;;;9.43;;
71869;SDS011;59739;47.696;11.746;2022-12-07T05:21:21;16.17;;;10.00;;
71869;SDS011;59739;47.696;11.746;2022-12-07T05:23:48;17.20;;;10.25;;
71869;SDS011;59739;47.696;11.746;2022-12-07T05:26:14;17.30;;;10.43;;
71869;SDS011;59739;47.696;11.746;2022-12-07T05:28:40;17.42;;;10.10;;
71869;SDS011;59739;47.696;11.746;2022-12-07T05:31:06;18.27;;;9.80;;
71869;SDS011;59739;47.696;11.746;2022-12-07T05:33:32;17.88;;;9.38;;
71869;SDS011;59739;47.696;11.746;2022-12-07T05:35:57;23.10;;;12.50;;
71869;SDS011;59739;47.696;11.746;2022-12-07T05:38:23;18.55;;;11.00;;
71869;SDS011;59739;47.696;11.746;2022-12-07T05:40:52;17.33;;;10.55;;
71869;SDS011;59739;47.696;11.746;2022-12-07T05:43:18;17.98;;;10.35;;
71869;SDS011;59739;47.696;11.746;2022-12-07T05:45:44;19.13;;;10.35;;
71869;SDS011;59739;47.696;11.746;2022-12-07T05:48:10;17.83;;;9.95;;
71869;SDS011;59739;47.696;11.746;2022-12-07T05:50:36;17.05;;;9.38;;
71869;SDS011;59739;47.696;11.746;2022-12-07T05:53:02;19.60;;;10.27;;
71869;SDS011;59739;47.696;11.746;2022-12-07T05:55:28;17.30;;;9.45;;
71869;SDS011;59739;47.696;11.746;2022-12-07T05:57:54;17.55;;;10.45;;
71869;SDS011;59739;47.696;11.746;2022-12-07T06:00:39;17.95;;;10.40;;
71869;SDS011;59739;47.696;11.746;2022-12-07T06:03:05;17.27;;;10.48;;
71869;SDS011;59739;47.696;11.746;2022-12-07T06:05:30;17.27;;;9.88;;
71869;SDS011;59739;47.696;11.746;2022-12-07T06:07:56;17.73;;;9.90;;
71869;SDS011;59739;47.696;11.746;2022-12-07T06:10:22;17.65;;;10.52;;
71869;SDS011;59739;47.696;11.746;2022-12-07T06:12:48;17.13;;;9.93;;
71869;SDS011;59739;47.696;11.746;2022-12-07T06:15:14;15.43;;;9.45;;
71869;SDS011;59739;47.696;11.746;2022-12-07T06:17:40;16.38;;;9.60;;
71869;SDS011;59739;47.696;11.746;2022-12-07T06:20:06;18.42;;;10.20;;
71869;SDS011;59739;47.696;11.746;2022-12-07T06:22:33;17.50;;;9.85;;
71869;SDS011;59739;47.696;11.746;2022-12-07T06:24:59;16.63;;;9.30;;
71869;SDS011;59739;47.696;11.746;2022-12-07T06:27:24;15.73;;;9.77;;
71869;SDS011;59739;47.696;11.746;2022-12-07T06:29:50;17.73;;;10.13;;
71869;SDS011;59739;47.696;11.746;2022-12-07T06:32:16;19.52;;;11.20;;
71869;SDS011;59739;47.696;11.746;2022-12-07T06:34:42;16.98;;;10.18;;
71869;SDS011;59739;47.696;11.746;2022-12-07T06:37:08;19.55;;;11.10;;
71869;SDS011;59739;47.696;11.746;2022-12-07T06:39:34;19.58;;;10.30;;
71869;SDS011;59739;47.696;11.746;2022-12-07T06:42:00;18.35;;;10.32;;
71869;SDS011;59739;47.696;11.746;2022-12-07T06:44:26;18.38;;;9.73;;
71869;SDS011;59739;47.696;11.746;2022-12-07T06:46:52;18.45;;;10.05;;
71869;SDS011;59739;47.696;11.746;2022-12-07T06:49:18;20.52;;;11.07;;
71869;SDS011;59739;47.696;11.746;2022-12-07T06:51:44;17.77;;;10.82;;
71869;SDS011;59739;47.696;11.746;2022-12-07T06:54:10;20.02;;;11.05;;
71869;SDS011;59739;47.696;11.746;2022-12-07T06:56:38;18.27;;;10.52;;
71869;SDS011;59739;47.696;11.746;2022-12-07T06:59:05;16.70;;;10.55;;
71869;SDS011;59739;47.696;11.746;2022-12-07T07:01:32;14.63;;;8.77;;
71869;SDS011;59739;47.696;11.746;2022-12-07T07:03:59;12.98;;;8.02;;
71869;SDS011;59739;47.696;11.746;2022-12-07T07:06:26;13.73;;;8.52;;
71869;SDS011;59739;47.696;11.746;2022-12-07T07:08:52;13.90;;;8.68;;
71869;SDS011;59739;47.696;11.746;2022-12-07T07:11:18;14.93;;;8.77;;
71869;SDS011;59739;47.696;11.746;2022-12-07T07:13:44;13.50;;;7.63;;
71869;SDS011;59739;47.696;11.746;2022-12-07T07:16:12;11.75;;;7.55;;
71869;SDS011;59739;47.696;11.746;2022-12-07T07:18:38;11.40;;;6.97;;
71869;SDS011;59739;47.696;11.746;2022-12-07T07:21:04;11.30;;;6.93;;
71869;SDS011;59739;47.696;11.746;2022-12-07T07:23:30;8.50;;;5.45;;
71869;SDS011;59739;47.696;11.746;2022-12-07T07:25:56;7.82;;;5.13;;
71869;SDS011;59739;47.696;11.746;2022-12-07T07:28:22;5.05;;;2.80;;
71869;SDS011;59739;47.696;11.746;2022-12-07T07:30:48;4.40;;;3.03;;
71869;SDS011;59739;47.696;11.746;2022-12-07T07:33:14;3.60;;;2.47;;
71869;SDS011;59739;47.696;11.746;2022-12-07T07:35:40;4.63;;;3.25;;
71869;SDS011;59739;47.696;11.746;2022-12-07T07:38:07;4.68;;;3.22;;
71869;SDS011;59739;47.696;11.746;2022-12-07T07:40:34;3.38;;;2.47;;
71869;SDS011;59739;47.696;11.746;2022-12-07T07:43:00;4.38;;;3.08;;
71869;SDS011;59739;47.696;11.746;2022-12-07T07:45:27;6.55;;;3.58;;
71869;SDS011;59739;47.696;11.746;2022-12-07T07:47:54;4.43;;;3.13;;
71869;SDS011;59739;47.696;11.746;2022-12-07T07:50:20;4.43;;;3.25;;
71869;SDS011;59739;47.696;11.746;2022-12-07T07:52:46;4.63;;;3.30;;
71869;SDS011;59739;47.696;11.746;2022-12-07T07:55:13;4.82;;;3.35;;
71869;SDS011;59739;47.696;11.746;2022-12-07T07:57:39;3.97;;;2.97;;
71869;SDS011;59739;47.696;11.746;2022-12-07T08:00:10;5.78;;;3.53;;
71869;SDS011;59739;47.696;11.746;2022-12-07T08:02:39;5.15;;;3.42;;
71869;SDS011;59739;47.696;11.746;2022-12-07T08:05:07;4.47;;;3.30;;
71869;SDS011;59739;47.696;11.746;2022-12-07T08:07:35;6.38;;;3.63;;
71869;SDS011;59739;47.696;11.746;2022-12-07T08:10:01;4.15;;;3.45;;
71869;SDS011;59739;47.696;11.746;2022-12-07T08:12:28;3.45;;;2.53;;
71869;SDS011;59739;47.696;11.746;2022-12-07T08:14:54;5.03;;;3.42;;
71869;SDS011;59739;47.696;11.746;2022-12-07T08:17:20;3.90;;;3.00;;
71869;SDS011;59739;47.696;11.746;2022-12-07T08:19:46;5.03;;;3.33;;
71869;SDS011;59739;47.696;11.746;2022-12-07T08:22:12;6.15;;;3.85;;
71869;SDS011;59739;47.696;11.746;2022-12-07T08:24:38;5.47;;;3.75;;
71869;SDS011;59739;47.696;11.746;2022-12-07T08:27:04;5.68;;;3.67;;
71869;SDS011;59739;47.696;11.746;2022-12-07T08:29:30;4.93;;;3.55;;
71869;SDS011;59739;47.696;11.746;2022-12-07T08:31:56;6.68;;;4.32;;
71869;SDS011;59739;47.696;11.746;2022-12-07T08:34:22;33.85;;;16.77;;
71869;SDS011;59739;47.696;11.746;2022-12-07T08:36:48;7.82;;;5.22;;
71869;SDS011;59739;47.696;11.746;2022-12-07T08:39:14;10.00;;;6.72;;
71869;SDS011;59739;47.696;11.746;2022-12-07T08:41:40;11.40;;;7.22;;
71869;SDS011;59739;47.696;11.746;2022-12-07T08:44:06;8.00;;;5.78;;
71869;SDS011;59739;47.696;11.746;2022-12-07T08:46:39;8.73;;;5.75;;
71869;SDS011;59739;47.696;11.746;2022-12-07T08:49:20;5.32;;;3.78;;
71869;SDS011;59739;47.696;11.746;2022-12-07T08:52:05;6.22;;;3.90;;
71869;SDS011;59739;47.696;11.746;2022-12-07T08:54:31;6.78;;;5.15;;
71869;SDS011;59739;47.696;11.746;2022-12-07T08:57:01;6.30;;;4.45;;
71869;SDS011;59739;47.696;11.746;2022-12-07T08:59:28;7.07;;;5.65;;
71869;SDS011;59739;47.696;11.746;2022-12-07T09:01:54;7.57;;;4.40;;
71869;SDS011;59739;47.696;11.746;2022-12-07T09:04:20;7.05;;;4.60;;
71869;SDS011;59739;47.696;11.746;2022-12-07T09:06:47;5.72;;;4.25;;
71869;SDS011;59739;47.696;11.746;2022-12-07T09:09:13;9.07;;;4.57;;
71869;SDS011;59739;47.696;11.746;2022-12-07T09:11:39;6.38;;;4.30;;
71869;SDS011;59739;47.696;11.746;2022-12-07T09:14:06;6.35;;;4.47;;
71869;SDS011;59739;47.696;11.746;2022-12-07T09:16:32;6.57;;;4.03;;
71869;SDS011;59739;47.696;11.746;2022-12-07T09:18:58;6.63;;;4.53;;
71869;SDS011;59739;47.696;11.746;2022-12-07T09:21:24;6.15;;;3.95;;
71869;SDS011;59739;47.696;11.746;2022-12-07T09:23:50;5.72;;;4.18;;
71869;SDS011;59739;47.696;11.746;2022-12-07T09:26:16;4.93;;;3.60;;
71869;SDS011;59739;47.696;11.746;2022-12-07T09:28:42;5.03;;;3.42;;
71869;SDS011;59739;47.696;11.746;2022-12-07T09:31:08;4.75;;;2.70;;
71869;SDS011;59739;47.696;11.746;2022-12-07T09:33:34;6.82;;;3.60;;
71869;SDS011;59739;47.696;11.746;2022-12-07T09:36:00;5.63;;;3.13;;
71869;SDS011;59739;47.696;11.746;2022-12-07T09:38:26;4.03;;;3.22;;
71869;SDS011;59739;47.696;11.746;2022-12-07T09:40:52;5.47;;;3.10;;
71869;SDS011;59739;47.696;11.746;2022-12-07T09:43:21;3.30;;;2.60;;
71869;SDS011;59739;47.696;11.746;2022-12-07T09:45:53;4.93;;;2.58;;
71869;SDS011;59739;47.696;11.746;2022-12-07T09:48:22;3.73;;;2.57;;
71869;SDS011;59739;47.696;11.746;2022-12-07T09:50:57;3.70;;;2.72;;
71869;SDS011;59739;47.696;11.746;2022-12-07T09:53:34;4.10;;;2.63;;
71869;SDS011;59739;47.696;11.746;2022-12-07T09:56:03;4.90;;;3.25;;
71869;SDS011;59739;47.696;11.746;2022-12-07T09:58:30;4.40;;;2.58;;
71869;SDS011;59739;47.696;11.746;2022-12-07T10:01:05;4.43;;;3.17;;
71869;SDS011;59739;47.696;11.746;2022-12-07T10:04:24;5.20;;;3.20;;
71869;SDS011;59739;47.696;11.746;2022-12-07T10:06:46;3.45;;;2.83;;
71869;SDS011;59739;47.696;11.746;2022-12-07T10:09:14;2.75;;;2.17;;
71869;SDS011;59739;47.696;11.746;2022-12-07T10:12:02;4.03;;;2.97;;
71869;SDS011;59739;47.696;11.746;2022-12-07T10:14:31;3.50;;;3.08;;
71869;SDS011;59739;47.696;11.746;2022-12-07T10:17:00;2.60;;;2.15;;
71869;SDS011;59739;47.696;11.746;2022-12-07T10:19:27;3.47;;;2.70;;
71869;SDS011;59739;47.696;11.746;2022-12-07T10:22:05;4.15;;;2.28;;
71869;SDS011;59739;47.696;11.746;2022-12-07T10:24:42;2.20;;;2.00;;
71869;SDS011;59739;47.696;11.746;2022-12-07T10:27:19;3.08;;;2.45;;
71869;SDS011;59739;47.696;11.746;2022-12-07T10:29:51;5.10;;;2.70;;
71869;SDS011;59739;47.696;11.746;2022-12-07T10:34:47;6.07;;;4.03;;
71869;SDS011;59739;47.696;11.746;2022-12-07T10:39:46;4.53;;;3.47;;
71869;SDS011;59739;47.696;11.746;2022-12-07T10:42:19;3.92;;;3.22;;
71869;SDS011;59739;47.696;11.746;2022-12-07T10:50:47;4.45;;;3.95;;
71869;SDS011;59739;47.696;11.746;2022-12-07T10:56:14;4.90;;;3.72;;
71869;SDS011;59739;47.696;11.746;2022-12-07T11:07:43;6.47;;;3.90;;
71869;SDS011;59739;47.696;11.746;2022-12-07T11:19:11;6.72;;;4.78;;
71869;SDS011;59739;47.696;11.746;2022-12-07T11:24:53;8.35;;;4.72;;
71869;SDS011;59739;47.696;11.746;2022-12-07T11:30:13;8.25;;;5.78;;
71869;SDS011;59739;47.696;11.746;2022-12-07T11:32:52;8.10;;;5.32;;
71869;SDS011;59739;47.696;11.746;2022-12-07T11:35:31;6.78;;;4.35;;
71869;SDS011;59739;47.696;11.746;2022-12-07T11:38:07;8.77;;;5.85;;
71869;SDS011;59739;47.696;11.746;2022-12-07T11:40:43;6.82;;;4.28;;
71869;SDS011;59739;47.696;11.746;2022-12-07T11:43:25;6.57;;;4.63;;
71869;SDS011;59739;47.696;11.746;2022-12-07T11:46:02;6.18;;;4.13;;
71869;SDS011;59739;47.696;11.746;2022-12-07T11:48:50;8.63;;;4.75;;
71869;SDS011;59739;47.696;11.746;2022-12-07T11:51:28;5.03;;;3.60;;
71869;SDS011;59739;47.696;11.746;2022-12-07T11:54:02;5.90;;;4.18;;
71869;SDS011;59739;47.696;11.746;2022-12-07T11:56:39;6.95;;;4.32;;
71869;SDS011;59739;47.696;11.746;2022-12-07T11:59:08;5.50;;;4.18;;
71869;SDS011;59739;47.696;11.746;2022-12-07T12:01:51;5.40;;;4.20;;
71869;SDS011;59739;47.696;11.746;2022-12-07T12:04:51;4.78;;;3.60;;
71869;SDS011;59739;47.696;11.746;2022-12-07T12:07:37;5.30;;;4.28;;
71869;SDS011;59739;47.696;11.746;2022-12-07T12:10:05;6.03;;;3.88;;
71869;SDS011;59739;47.696;11.746;2022-12-07T12:13:05;8.43;;;4.57;;
71869;SDS011;59739;47.696;11.746;2022-12-07T12:21:19;5.30;;;3.80;;
71869;SDS011;59739;47.696;11.746;2022-12-07T12:23:56;5.68;;;4.15;;
71869;SDS011;59739;47.696;11.746;2022-12-07T12:26:27;6.93;;;4.30;;
71869;SDS011;59739;47.696;11.746;2022-12-07T12:34:00;5.10;;;3.60;;
71869;SDS011;59739;47.696;11.746;2022-12-07T12:51:48;4.82;;;3.13;;
71869;SDS011;59739;47.696;11.746;2022-12-07T12:54:23;4.55;;;3.10;;
71869;SDS011;59739;47.696;11.746;2022-12-07T12:56:59;4.05;;;3.03;;
71869;SDS011;59739;47.696;11.746;2022-12-07T12:59:31;3.50;;;2.75;;
71869;SDS011;59739;47.696;11.746;2022-12-07T13:12:55;6.30;;;3.35;;
71869;SDS011;59739;47.696;11.746;2022-12-07T13:15:40;4.78;;;3.55;;
71869;SDS011;59739;47.696;11.746;2022-12-07T13:26:15;5.72;;;4.07;;
71869;SDS011;59739;47.696;11.746;2022-12-07T13:31:55;4.68;;;3.70;;
71869;SDS011;59739;47.696;11.746;2022-12-07T13:37:12;4.75;;;3.53;;
71869;SDS011;59739;47.696;11.746;2022-12-07T13:39:49;5.13;;;3.58;;
71869;SDS011;59739;47.696;11.746;2022-12-07T13:42:29;4.72;;;3.20;;
71869;SDS011;59739;47.696;11.746;2022-12-07T13:44:57;4.72;;;3.70;;
71869;SDS011;59739;47.696;11.746;2022-12-07T13:47:36;4.32;;;3.47;;
71869;SDS011;59739;47.696;11.746;2022-12-07T13:50:21;5.85;;;3.63;;
71869;SDS011;59739;47.696;11.746;2022-12-07T13:52:49;6.25;;;4.10;;
71869;SDS011;59739;47.696;11.746;2022-12-07T13:55:16;5.70;;;4.10;;
71869;SDS011;59739;47.696;11.746;2022-12-07T13:57:42;5.70;;;4.00;;
71869;SDS011;59739;47.696;11.746;2022-12-07T14:00:16;5.32;;;3.80;;
71869;SDS011;59739;47.696;11.746;2022-12-07T14:05:33;5.68;;;3.97;;
71869;SDS011;59739;47.696;11.746;2022-12-07T14:08:02;6.10;;;4.25;;
71869;SDS011;59739;47.696;11.746;2022-12-07T14:10:32;28.60;;;12.52;;
71869;SDS011;59739;47.696;11.746;2022-12-07T14:13:33;6.85;;;4.55;;
71869;SDS011;59739;47.696;11.746;2022-12-07T14:18:52;7.38;;;4.40;;
71869;SDS011;59739;47.696;11.746;2022-12-07T14:21:20;10.30;;;7.03;;
71869;SDS011;59739;47.696;11.746;2022-12-07T14:24:07;6.28;;;4.47;;
71869;SDS011;59739;47.696;11.746;2022-12-07T14:26:44;5.63;;;4.35;;
71869;SDS011;59739;47.696;11.746;2022-12-07T14:31:51;5.85;;;3.80;;
71869;SDS011;59739;47.696;11.746;2022-12-07T14:34:20;5.82;;;3.88;;
71869;SDS011;59739;47.696;11.746;2022-12-07T14:36:47;9.55;;;4.93;;
71869;SDS011;59739;47.696;11.746;2022-12-07T14:39:13;6.60;;;4.32;;
71869;SDS011;59739;47.696;11.746;2022-12-07T14:41:39;6.97;;;4.15;;
71869;SDS011;59739;47.696;11.746;2022-12-07T14:44:18;6.00;;;4.25;;
71869;SDS011;59739;47.696;11.746;2022-12-07T14:46:47;7.07;;;4.22;;
71869;SDS011;59739;47.696;11.746;2022-12-07T14:49:15;8.60;;;5.35;;
71869;SDS011;59739;47.696;11.746;2022-12-07T14:51:42;10.07;;;6.40;;
71869;SDS011;59739;47.696;11.746;2022-12-07T14:54:13;11.95;;;6.97;;
71869;SDS011;59739;47.696;11.746;2022-12-07T14:56:43;11.15;;;6.38;;
71869;SDS011;59739;47.696;11.746;2022-12-07T14:59:10;9.90;;;5.70;;
71869;SDS011;59739;47.696;11.746;2022-12-07T15:01:37;7.45;;;5.38;;
71869;SDS011;59739;47.696;11.746;2022-12-07T15:04:04;10.02;;;5.70;;
71869;SDS011;59739;47.696;11.746;2022-12-07T15:06:30;7.75;;;5.35;;
71869;SDS011;59739;47.696;11.746;2022-12-07T15:08:56;9.70;;;5.82;;
71869;SDS011;59739;47.696;11.746;2022-12-07T15:11:22;8.05;;;4.90;;
71869;SDS011;59739;47.696;11.746;2022-12-07T15:13:48;8.23;;;5.40;;
71869;SDS011;59739;47.696;11.746;2022-12-07T15:16:32;9.25;;;5.80;;
71869;SDS011;59739;47.696;11.746;2022-12-07T15:18:59;8.80;;;6.35;;
71869;SDS011;59739;47.696;11.746;2022-12-07T15:21:26;10.73;;;6.78;;
71869;SDS011;59739;47.696;11.746;2022-12-07T15:23:53;9.38;;;6.55;;
71869;SDS011;59739;47.696;11.746;2022-12-07T15:26:19;10.27;;;6.38;;
71869;SDS011;59739;47.696;11.746;2022-12-07T15:28:45;8.18;;;5.28;;
71869;SDS011;59739;47.696;11.746;2022-12-07T15:31:15;6.95;;;5.35;;
71869;SDS011;59739;47.696;11.746;2022-12-07T15:33:42;9.15;;;6.03;;
71869;SDS011;59739;47.696;11.746;2022-12-07T15:36:12;9.15;;;5.95;;
71869;SDS011;59739;47.696;11.746;2022-12-07T15:38:47;7.75;;;6.20;;
71869;SDS011;59739;47.696;11.746;2022-12-07T15:41:14;7.63;;;5.75;;
71869;SDS011;59739;47.696;11.746;2022-12-07T15:43:40;9.77;;;6.18;;
71869;SDS011;59739;47.696;11.746;2022-12-07T15:46:31;10.40;;;6.13;;
71869;SDS011;59739;47.696;11.746;2022-12-07T15:49:04;9.30;;;6.25;;
71869;SDS011;59739;47.696;11.746;2022-12-07T15:51:35;8.48;;;6.25;;
71869;SDS011;59739;47.696;11.746;2022-12-07T15:54:01;8.50;;;6.22;;
71869;SDS011;59739;47.696;11.746;2022-12-07T15:56:27;9.45;;;6.50;;
71869;SDS011;59739;47.696;11.746;2022-12-07T15:58:53;9.90;;;6.40;;
71869;SDS011;59739;47.696;11.746;2022-12-07T16:01:20;11.27;;;6.80;;
71869;SDS011;59739;47.696;11.746;2022-12-07T16:03:46;9.48;;;6.70;;
71869;SDS011;59739;47.696;11.746;2022-12-07T16:06:15;10.13;;;6.57;;
71869;SDS011;59739;47.696;11.746;2022-12-07T16:08:43;12.48;;;8.10;;
71869;SDS011;59739;47.696;11.746;2022-12-07T16:11:10;14.45;;;9.27;;
71869;SDS011;59739;47.696;11.746;2022-12-07T16:13:36;15.45;;;9.43;;
71869;SDS011;59739;47.696;11.746;2022-12-07T16:16:07;11.20;;;8.55;;
71869;SDS011;59739;47.696;11.746;2022-12-07T16:18:37;14.95;;;8.23;;
71869;SDS011;59739;47.696;11.746;2022-12-07T16:21:02;9.60;;;7.45;;
71869;SDS011;59739;47.696;11.746;2022-12-07T16:23:29;12.60;;;7.63;;
71869;SDS011;59739;47.696;11.746;2022-12-07T16:26:03;13.00;;;8.52;;
71869;SDS011;59739;47.696;11.746;2022-12-07T16:28:34;14.45;;;9.25;;
71869;SDS011;59739;47.696;11.746;2022-12-07T16:31:01;14.20;;;9.55;;
71869;SDS011;59739;47.696;11.746;2022-12-07T16:33:36;14.27;;;10.23;;
71869;SDS011;59739;47.696;11.746;2022-12-07T16:36:04;12.95;;;9.05;;
71869;SDS011;59739;47.696;11.746;2022-12-07T16:38:32;15.18;;;9.75;;
71869;SDS011;59739;47.696;11.746;2022-12-07T16:40:58;11.10;;;8.30;;
71869;SDS011;59739;47.696;11.746;2022-12-07T16:43:24;12.02;;;8.90;;
71869;SDS011;59739;47.696;11.746;2022-12-07T16:45:50;12.85;;;7.95;;
71869;SDS011;59739;47.696;11.746;2022-12-07T16:48:17;12.48;;;8.27;;
71869;SDS011;59739;47.696;11.746;2022-12-07T16:50:43;10.52;;;7.45;;
71869;SDS011;59739;47.696;11.746;2022-12-07T16:53:10;9.57;;;6.97;;
71869;SDS011;59739;47.696;11.746;2022-12-07T16:55:37;12.55;;;7.80;;
71869;SDS011;59739;47.696;11.746;2022-12-07T16:58:06;13.68;;;8.73;;
71869;SDS011;59739;47.696;11.746;2022-12-07T17:00:33;11.30;;;8.68;;